Time;durP1;ratioP1;P1;durP2;ratioP2;P2;SDS_P1;SDS_P2;PMS_P1;PMS_P2;Temp;Humidity;BMP_temperature;BMP_pressure;BME280_temperature;BME280_humidity;BME280_pressure;Samples;Min_cycle;Max_cycle;Signal;HPM_P1;HPM_P2
2024/03/13 00:01:00;;;;;;;12.18;10.00;;;10.50;99.90;;;;;;5013859;28;20041;-86
2024/03/13 00:03:26;;;;;;;12.90;9.13;;;10.50;99.90;;;;;;5013910;28;20042;-85
2024/03/13 00:05:53;;;;;;;11.68;9.27;;;10.40;99.90;;;;;;5030085;28;20061;-86
2024/03/13 00:08:21;;;;;;;12.38;10.40;;;10.50;99.90;;;;;;5013722;28;20152;-85
2024/03/13 00:10:46;;;;;;;11.65;9.70;;;10.50;99.90;;;;;;5014122;28;20026;-85
2024/03/13 00:13:12;;;;;;;13.55;10.60;;;10.50;99.90;;;;;;5014304;28;20080;-85
2024/03/13 00:15:38;;;;;;;11.25;9.95;;;10.50;99.90;;;;;;5030410;28;20022;-85
2024/03/13 00:18:04;;;;;;;12.88;10.13;;;10.40;99.90;;;;;;5013984;28;20022;-84
2024/03/13 00:20:30;;;;;;;11.65;9.10;;;10.40;99.90;;;;;;5013888;28;20066;-84
2024/03/13 00:23:01;;;;;;;11.13;9.02;;;10.50;99.90;;;;;;5014412;28;20141;-84
2024/03/13 00:25:28;;;;;;;10.18;8.90;;;10.50;99.90;;;;;;5014157;28;20026;-84
2024/03/13 00:27:55;;;;;;;12.75;9.35;;;10.50;99.90;;;;;;5014391;28;20046;-85
2024/03/13 00:30:22;;;;;;;11.30;9.80;;;10.50;99.90;;;;;;4997957;28;20061;-84
2024/03/13 00:32:52;;;;;;;11.07;9.63;;;10.50;99.90;;;;;;5016376;28;20093;-85
2024/03/13 00:35:18;;;;;;;10.68;8.90;;;10.50;99.90;;;;;;5036503;28;20106;-84
2024/03/13 00:37:44;;;;;;;11.43;8.95;;;10.50;99.90;;;;;;5037938;28;20018;-84
2024/03/13 00:40:11;;;;;;;9.38;8.27;;;10.50;99.90;;;;;;5038120;28;20018;-84
2024/03/13 00:42:40;;;;;;;9.45;7.47;;;10.50;99.90;;;;;;5037500;28;20006;-85
2024/03/13 00:45:06;;;;;;;8.85;7.93;;;10.50;99.90;;;;;;4999960;28;20038;-84
2024/03/13 00:47:32;;;;;;;9.23;7.97;;;10.50;99.90;;;;;;5014005;28;20022;-84
2024/03/13 00:50:03;;;;;;;10.77;8.13;;;10.50;99.90;;;;;;5013693;28;20030;-85
2024/03/13 00:52:29;;;;;;;9.60;7.90;;;10.50;99.90;;;;;;5014094;28;20029;-84
2024/03/13 00:54:55;;;;;;;8.65;7.60;;;10.50;99.90;;;;;;5013769;28;20520;-84
2024/03/13 00:57:20;;;;;;;8.30;7.40;;;10.50;99.90;;;;;;5013684;28;20057;-84
2024/03/13 00:59:49;;;;;;;8.70;7.70;;;10.60;99.90;;;;;;5013239;28;20430;-86
2024/03/13 01:02:15;;;;;;;7.88;7.07;;;10.60;99.90;;;;;;5013276;28;20504;-85
2024/03/13 01:04:44;;;;;;;8.88;7.35;;;10.60;99.90;;;;;;4996887;28;20042;-85
2024/03/13 01:07:09;;;;;;;8.48;6.88;;;10.60;99.90;;;;;;5013509;28;20038;-84
2024/03/13 01:09:35;;;;;;;8.00;7.13;;;10.60;99.90;;;;;;5013107;28;20056;-84
2024/03/13 01:12:05;;;;;;;7.95;7.10;;;10.60;99.90;;;;;;5013496;28;20421;-83
2024/03/13 01:14:31;;;;;;;9.88;8.02;;;10.60;99.90;;;;;;5013533;28;20394;-85
2024/03/13 01:17:00;;;;;;;8.30;7.40;;;10.60;99.90;;;;;;5013242;28;20029;-85
2024/03/13 01:19:32;;;;;;;9.43;7.78;;;10.60;99.90;;;;;;5030026;28;20115;-84
2024/03/13 01:22:12;;;;;;;7.63;6.57;;;10.60;99.90;;;;;;5014480;28;20175;-85
2024/03/13 01:24:39;;;;;;;8.85;7.72;;;10.60;99.90;;;;;;5015146;28;20042;-85
2024/03/13 01:27:05;;;;;;;8.00;7.20;;;10.60;99.90;;;;;;5013891;28;20079;-84
2024/03/13 01:29:30;;;;;;;7.75;6.95;;;10.60;99.90;;;;;;5030158;28;20057;-85
2024/03/13 01:31:56;;;;;;;8.35;7.45;;;10.60;99.90;;;;;;5013571;28;20069;-84
2024/03/13 01:34:22;;;;;;;10.75;8.15;;;10.60;99.90;;;;;;5013580;28;20029;-85
2024/03/13 01:39:34;;;;;;;9.30;7.28;;;10.60;99.90;;;;;;5014560;28;20036;-85
2024/03/13 01:56:21;;;;;;;7.57;6.75;;;10.70;99.90;;;;;;5014577;28;20045;-85
2024/03/13 01:58:52;;;;;;;8.23;7.43;;;10.60;99.90;;;;;;5034181;28;20022;-85
2024/03/13 02:04:03;;;;;;;8.23;7.20;;;10.60;99.90;;;;;;5020210;28;20044;-85
2024/03/13 02:06:29;;;;;;;8.07;7.28;;;10.70;99.90;;;;;;5033068;28;20053;-85
2024/03/13 02:08:57;;;;;;;9.48;7.15;;;10.60;99.90;;;;;;5040416;28;20276;-85
2024/03/13 02:11:23;;;;;;;8.02;7.22;;;10.60;99.90;;;;;;5024402;28;20049;-84
2024/03/13 02:13:51;;;;;;;8.10;7.15;;;10.60;99.90;;;;;;5040448;28;20010;-85
2024/03/13 02:16:17;;;;;;;8.45;7.35;;;10.70;99.90;;;;;;5021227;28;20382;-82
2024/03/13 02:18:43;;;;;;;8.05;7.25;;;10.60;99.90;;;;;;4998304;28;20119;-82
2024/03/13 02:21:11;;;;;;;8.55;7.65;;;10.70;99.90;;;;;;5016706;28;20022;-81
2024/03/13 02:23:39;;;;;;;7.85;6.93;;;10.70;99.90;;;;;;5015220;28;20033;-83
2024/03/13 02:26:04;;;;;;;8.68;7.75;;;10.70;99.90;;;;;;5014961;28;20473;-83
2024/03/13 02:28:36;;;;;;;10.27;7.72;;;10.70;99.90;;;;;;5014921;28;20046;-84
2024/03/13 02:31:02;;;;;;;9.13;7.55;;;10.70;99.90;;;;;;5031623;28;20073;-83
2024/03/13 02:33:30;;;;;;;9.82;7.80;;;10.70;99.90;;;;;;4998643;28;20026;-83
2024/03/13 02:35:56;;;;;;;9.88;8.27;;;10.70;99.90;;;;;;4998840;28;20037;-83
2024/03/13 02:38:22;;;;;;;9.65;7.55;;;10.70;99.90;;;;;;5014676;28;20026;-83
2024/03/13 02:40:47;;;;;;;10.75;8.45;;;10.70;99.90;;;;;;5014887;28;20030;-83
2024/03/13 02:43:13;;;;;;;12.75;8.05;;;10.70;99.90;;;;;;5014783;28;20030;-84
2024/03/13 02:45:42;;;;;;;10.95;8.05;;;10.70;99.90;;;;;;4998592;28;20037;-83
2024/03/13 02:48:09;;;;;;;11.23;8.35;;;10.70;99.90;;;;;;5014537;28;20504;-82
2024/03/13 02:50:35;;;;;;;9.57;7.78;;;10.70;99.90;;;;;;5014397;28;20496;-82
2024/03/13 02:53:01;;;;;;;12.98;8.32;;;10.80;99.90;;;;;;4998112;28;20028;-83
2024/03/13 02:55:27;;;;;;;10.15;8.02;;;10.80;99.90;;;;;;4997319;28;20075;-82
2024/03/13 02:57:52;;;;;;;14.88;8.60;;;10.80;99.90;;;;;;5014682;28;20532;-82
2024/03/13 03:00:19;;;;;;;13.52;9.35;;;10.80;99.90;;;;;;5014447;28;20025;-82
2024/03/13 03:02:44;;;;;;;14.10;9.20;;;10.80;99.90;;;;;;5014351;28;20029;-83
2024/03/13 03:05:10;;;;;;;15.57;9.55;;;10.80;99.90;;;;;;4998302;28;20026;-82
2024/03/13 03:07:36;;;;;;;17.98;9.65;;;10.80;99.90;;;;;;4998062;28;20473;-82
2024/03/13 03:10:02;;;;;;;13.20;10.20;;;10.80;99.90;;;;;;4998632;28;20125;-82
2024/03/13 03:12:28;;;;;;;18.10;11.20;;;10.80;99.90;;;;;;5014272;28;20032;-82
2024/03/13 03:14:56;;;;;;;15.10;11.45;;;10.80;99.90;;;;;;5014459;28;20030;-84
2024/03/13 03:17:23;;;;;;;14.95;10.75;;;10.80;99.90;;;;;;5014426;28;20030;-83
2024/03/13 03:19:49;;;;;;;16.15;11.05;;;10.80;99.90;;;;;;4997824;28;20018;-83
2024/03/13 03:22:16;;;;;;;14.07;11.00;;;10.80;99.90;;;;;;5015317;28;20022;-83
2024/03/13 03:24:41;;;;;;;15.73;11.18;;;10.80;99.90;;;;;;4997762;28;20029;-83
2024/03/13 03:27:07;;;;;;;15.75;11.50;;;10.80;99.90;;;;;;5014170;28;20553;-83
2024/03/13 03:29:33;;;;;;;14.95;10.90;;;10.90;99.90;;;;;;5030448;28;20127;-84
2024/03/13 03:31:59;;;;;;;14.30;11.23;;;10.80;99.90;;;;;;5014712;28;20034;-83
2024/03/13 03:34:25;;;;;;;16.00;12.40;;;10.80;99.90;;;;;;5014625;28;20026;-82
2024/03/13 03:36:52;;;;;;;15.02;11.25;;;10.90;99.90;;;;;;5003491;28;20036;-82
2024/03/13 03:39:23;;;;;;;16.38;12.60;;;10.80;99.90;;;;;;5037111;28;20026;-83
2024/03/13 03:41:48;;;;;;;18.05;12.52;;;10.90;99.90;;;;;;5023806;28;20010;-82
2024/03/13 03:44:14;;;;;;;16.33;12.52;;;10.90;99.90;;;;;;5022606;28;20014;-83
2024/03/13 03:46:40;;;;;;;17.10;13.07;;;10.90;99.90;;;;;;5038055;28;20041;-83
2024/03/13 03:49:06;;;;;;;17.90;12.68;;;10.90;99.90;;;;;;5017208;28;20406;-83
2024/03/13 03:51:32;;;;;;;14.88;12.40;;;10.90;99.90;;;;;;5029973;28;20038;-83
2024/03/13 03:54:02;;;;;;;15.35;12.43;;;10.90;99.90;;;;;;5013944;28;20033;-83
2024/03/13 03:56:38;;;;;;;14.68;12.02;;;10.90;99.90;;;;;;5029619;28;20363;-83
2024/03/13 03:59:05;;;;;;;15.93;12.30;;;10.90;99.90;;;;;;5013493;28;20037;-83
2024/03/13 04:01:31;;;;;;;15.00;11.57;;;10.90;99.90;;;;;;5013578;28;20037;-84
2024/03/13 04:03:58;;;;;;;14.93;11.50;;;10.90;99.90;;;;;;5013806;28;20030;-82
2024/03/13 04:06:24;;;;;;;13.43;11.13;;;11.00;99.90;;;;;;4996882;28;20033;-82
2024/03/13 04:08:52;;;;;;;12.70;10.80;;;11.00;99.90;;;;;;5013419;28;20072;-83
2024/03/13 04:11:19;;;;;;;14.10;11.85;;;11.00;99.90;;;;;;5013317;28;20037;-83
2024/03/13 04:13:46;;;;;;;14.20;11.52;;;11.00;99.90;;;;;;4997038;28;20030;-82
2024/03/13 04:16:13;;;;;;;12.75;10.88;;;11.00;99.90;;;;;;5013176;28;20466;-82
2024/03/13 04:18:39;;;;;;;13.32;11.15;;;11.00;99.90;;;;;;5013946;28;20018;-82
2024/03/13 04:21:05;;;;;;;13.05;10.88;;;11.00;99.90;;;;;;5012894;28;20116;-82
2024/03/13 04:23:31;;;;;;;12.73;11.43;;;11.10;99.90;;;;;;5029183;28;20108;-83
2024/03/13 04:25:57;;;;;;;11.35;10.10;;;11.00;99.90;;;;;;4996458;28;20466;-83
2024/03/13 04:28:23;;;;;;;12.57;10.75;;;11.10;99.90;;;;;;5013025;28;20061;-82
2024/03/13 04:30:49;;;;;;;12.68;10.85;;;11.00;99.90;;;;;;4996484;28;20106;-83
2024/03/13 04:33:16;;;;;;;13.75;11.32;;;11.10;99.90;;;;;;5012993;28;20038;-82
2024/03/13 04:35:45;;;;;;;12.90;11.00;;;11.10;99.90;;;;;;5028687;28;20116;-82
2024/03/13 04:38:14;;;;;;;11.60;10.10;;;11.10;99.90;;;;;;5012586;28;20030;-82
2024/03/13 04:40:42;;;;;;;12.00;10.75;;;11.10;99.90;;;;;;5012849;28;20029;-82
2024/03/13 04:43:08;;;;;;;11.90;9.98;;;11.10;99.90;;;;;;5012771;28;20064;-82
2024/03/13 04:45:37;;;;;;;13.80;11.27;;;11.10;99.90;;;;;;5012458;28;20081;-81
2024/03/13 04:48:06;;;;;;;14.18;11.30;;;11.10;99.90;;;;;;5012495;28;20049;-82
2024/03/13 04:50:33;;;;;;;11.70;10.18;;;11.20;99.90;;;;;;5012627;28;20041;-82
2024/03/13 04:52:59;;;;;;;11.57;10.00;;;11.10;99.90;;;;;;5029229;28;20053;-83
2024/03/13 04:55:26;;;;;;;12.27;10.55;;;11.20;99.90;;;;;;5013731;28;20061;-82
2024/03/13 04:57:52;;;;;;;12.55;9.88;;;11.20;99.90;;;;;;4996520;28;20032;-82
2024/03/13 05:00:17;;;;;;;11.48;9.65;;;11.20;99.90;;;;;;5012673;28;20096;-82
2024/03/13 05:02:44;;;;;;;10.85;9.50;;;11.20;99.90;;;;;;5012485;28;20026;-82
2024/03/13 05:05:13;;;;;;;11.00;9.10;;;11.20;99.90;;;;;;5029598;28;20037;-83
2024/03/13 05:07:39;;;;;;;10.13;8.13;;;11.20;99.90;;;;;;5033603;28;20076;-83
2024/03/13 05:10:06;;;;;;;9.40;7.88;;;11.30;99.90;;;;;;5017046;28;20033;-82
2024/03/13 05:12:36;;;;;;;9.13;7.53;;;11.30;99.90;;;;;;5036772;28;20116;-85
2024/03/13 05:15:03;;;;;;;9.80;7.28;;;11.30;99.90;;;;;;5037426;28;20051;-83
2024/03/13 05:17:29;;;;;;;9.23;7.53;;;11.30;99.90;;;;;;5038962;28;20026;-84
2024/03/13 05:19:54;;;;;;;10.50;7.95;;;11.30;99.90;;;;;;5035680;28;20084;-82
2024/03/13 05:22:20;;;;;;;8.63;7.28;;;11.30;99.90;;;;;;5016634;28;20371;-82
2024/03/13 05:24:48;;;;;;;7.50;6.40;;;11.30;99.90;;;;;;5017756;28;20037;-82
2024/03/13 05:27:15;;;;;;;8.27;7.18;;;11.30;99.90;;;;;;5000480;28;20049;-82
2024/03/13 05:29:41;;;;;;;8.63;7.10;;;11.30;99.90;;;;;;4984059;28;20030;-84
2024/03/13 05:32:07;;;;;;;8.45;7.13;;;11.30;99.90;;;;;;5015695;28;20397;-82
2024/03/13 05:34:37;;;;;;;8.63;6.72;;;11.30;99.90;;;;;;5016146;28;20021;-83
2024/03/13 05:37:03;;;;;;;9.25;6.90;;;11.40;99.90;;;;;;5000161;28;20045;-83
2024/03/13 05:39:29;;;;;;;8.45;6.55;;;11.30;99.90;;;;;;4999830;28;20026;-82
2024/03/13 05:41:55;;;;;;;7.85;6.78;;;11.30;99.90;;;;;;4999687;28;20037;-81
2024/03/13 05:44:21;;;;;;;7.82;6.70;;;11.30;99.90;;;;;;5016012;28;20474;-82
2024/03/13 05:46:48;;;;;;;7.90;6.88;;;11.30;99.90;;;;;;5015828;28;20034;-81
2024/03/13 05:49:16;;;;;;;8.40;7.07;;;11.30;99.90;;;;;;5031797;28;20026;-82
2024/03/13 05:51:43;;;;;;;9.07;6.50;;;11.30;99.90;;;;;;5015811;28;20030;-82
2024/03/13 05:54:09;;;;;;;7.18;6.45;;;11.40;99.90;;;;;;5015842;28;20116;-82
2024/03/13 05:56:34;;;;;;;9.05;6.60;;;11.30;99.90;;;;;;4998801;28;20109;-82
2024/03/13 05:59:00;;;;;;;8.02;6.22;;;11.40;99.90;;;;;;5015708;28;20493;-82
2024/03/13 06:01:28;;;;;;;6.90;6.20;;;11.40;99.90;;;;;;5015289;28;20034;-81
2024/03/13 06:03:54;;;;;;;8.15;6.40;;;11.40;99.90;;;;;;4983132;28;20112;-81
2024/03/13 06:06:23;;;;;;;7.72;6.40;;;11.40;99.90;;;;;;5031730;28;20064;-81
2024/03/13 06:08:49;;;;;;;8.52;6.30;;;11.40;99.90;;;;;;5015444;28;20026;-81
2024/03/13 06:11:18;;;;;;;8.15;6.32;;;11.50;99.90;;;;;;4999121;28;20060;-81
2024/03/13 06:13:44;;;;;;;6.40;5.72;;;11.50;99.90;;;;;;5016021;28;20026;-82
2024/03/13 06:16:10;;;;;;;7.32;6.28;;;11.50;99.90;;;;;;5015531;28;20410;-82
2024/03/13 06:18:36;;;;;;;6.70;6.00;;;11.50;99.90;;;;;;5015104;28;20022;-82
2024/03/13 06:21:07;;;;;;;9.27;6.88;;;11.50;99.90;;;;;;4998902;28;20026;-82
2024/03/13 06:23:47;;;;;;;7.45;5.88;;;11.50;99.90;;;;;;5016321;28;20045;-83
2024/03/13 06:26:17;;;;;;;6.97;6.28;;;11.50;99.90;;;;;;5016881;28;20389;-82
2024/03/13 06:31:32;;;;;;;8.55;6.47;;;11.50;99.90;;;;;;5015556;28;20591;-81
2024/03/13 06:33:59;;;;;;;7.95;6.38;;;11.60;99.90;;;;;;5016350;28;20030;-83
2024/03/13 06:36:24;;;;;;;7.78;6.72;;;11.60;99.90;;;;;;5015332;28;20020;-82
2024/03/13 06:38:50;;;;;;;7.10;6.13;;;11.60;99.90;;;;;;5015493;28;20276;-82
2024/03/13 06:41:16;;;;;;;7.30;6.38;;;11.60;99.90;;;;;;5017578;28;20054;-82
2024/03/13 06:43:42;;;;;;;6.95;5.75;;;11.60;99.90;;;;;;5029293;28;20038;-83
2024/03/13 06:46:07;;;;;;;7.35;6.32;;;11.60;99.90;;;;;;5023805;28;20095;-82
2024/03/13 06:48:34;;;;;;;7.32;6.60;;;11.60;99.90;;;;;;5039763;28;20022;-82
2024/03/13 06:51:06;;;;;;;6.97;6.28;;;11.60;99.90;;;;;;5039539;28;20065;-82
2024/03/13 06:53:31;;;;;;;6.20;5.60;;;11.70;99.90;;;;;;5033097;28;20048;-81
2024/03/13 06:56:00;;;;;;;6.50;5.88;;;11.70;99.90;;;;;;5015063;28;20466;-82
2024/03/13 06:58:27;;;;;;;6.18;5.55;;;11.70;99.90;;;;;;4998816;28;20033;-82
2024/03/13 07:00:53;;;;;;;5.95;5.35;;;11.70;99.90;;;;;;5014689;28;20030;-83
2024/03/13 07:03:19;;;;;;;5.50;4.88;;;11.70;99.90;;;;;;4998409;28;20160;-82
2024/03/13 07:05:44;;;;;;;6.32;5.72;;;11.70;99.90;;;;;;5014181;28;20363;-82
2024/03/13 07:08:12;;;;;;;7.10;6.38;;;11.70;99.90;;;;;;5014251;28;20056;-81
2024/03/13 07:10:38;;;;;;;6.60;5.93;;;11.70;99.90;;;;;;4998541;28;20492;-81
2024/03/13 07:13:06;;;;;;;7.68;6.65;;;11.70;99.90;;;;;;5014221;28;20026;-83
2024/03/13 07:15:34;;;;;;;7.60;6.47;;;11.70;99.90;;;;;;5030848;28;20014;-82
2024/03/13 07:18:00;;;;;;;7.53;6.35;;;11.70;99.90;;;;;;5014180;28;20542;-82
2024/03/13 07:20:26;;;;;;;7.25;6.55;;;11.70;99.90;;;;;;5014137;28;20030;-82
2024/03/13 07:22:51;;;;;;;7.53;6.72;;;11.70;99.90;;;;;;5030276;28;20480;-82
2024/03/13 07:25:17;;;;;;;8.05;7.03;;;11.70;99.90;;;;;;5013905;28;20079;-82
2024/03/13 07:27:43;;;;;;;8.32;7.15;;;11.70;99.90;;;;;;5014052;28;20442;-83
2024/03/13 07:30:09;;;;;;;9.65;7.93;;;11.70;99.90;;;;;;4997347;28;20121;-82
2024/03/13 07:32:35;;;;;;;8.63;7.20;;;11.70;99.90;;;;;;5013917;28;20022;-82
2024/03/13 07:35:03;;;;;;;8.48;7.68;;;11.80;99.90;;;;;;5013975;28;20026;-83
2024/03/13 07:37:29;;;;;;;9.45;8.00;;;11.80;99.90;;;;;;5030471;28;20153;-83
2024/03/13 07:39:58;;;;;;;8.13;7.32;;;11.80;99.90;;;;;;5013369;28;20056;-82
2024/03/13 07:42:25;;;;;;;7.93;7.07;;;11.80;99.90;;;;;;4998253;28;20033;-82
2024/03/13 07:44:51;;;;;;;11.18;7.35;;;11.80;99.90;;;;;;4997814;28;20026;-82
2024/03/13 07:47:17;;;;;;;9.70;7.53;;;11.70;99.90;;;;;;4997592;28;20030;-82
2024/03/13 07:49:43;;;;;;;9.20;8.27;;;11.80;99.90;;;;;;4997362;28;20140;-82
2024/03/13 07:52:09;;;;;;;10.77;7.57;;;11.80;99.90;;;;;;5013894;28;20041;-83
2024/03/13 07:54:37;;;;;;;9.90;8.13;;;11.80;99.90;;;;;;4997131;28;20124;-82
2024/03/13 07:57:04;;;;;;;8.73;7.80;;;11.80;99.90;;;;;;4997647;28;20026;-82
2024/03/13 07:59:30;;;;;;;10.40;8.20;;;11.80;99.90;;;;;;5013450;28;20124;-83
2024/03/13 08:01:56;;;;;;;10.23;8.00;;;11.80;99.90;;;;;;4997585;28;20045;-82
2024/03/13 08:04:24;;;;;;;9.88;8.10;;;11.80;99.90;;;;;;5013616;28;20038;-82
2024/03/13 08:06:53;;;;;;;11.82;8.40;;;11.80;99.90;;;;;;5013536;28;20172;-83
2024/03/13 08:09:23;;;;;;;9.27;8.05;;;11.90;99.90;;;;;;5029908;28;20401;-82
2024/03/13 08:11:53;;;;;;;8.50;7.70;;;11.90;99.90;;;;;;4998296;28;20037;-83
2024/03/13 08:14:23;;;;;;;9.85;8.15;;;11.90;99.90;;;;;;4998501;28;20394;-82
2024/03/13 08:16:48;;;;;;;11.68;8.32;;;11.90;99.90;;;;;;5000272;28;20030;-83
2024/03/13 08:19:14;;;;;;;11.65;8.82;;;12.00;99.90;;;;;;5035460;28;20018;-81
2024/03/13 08:21:40;;;;;;;11.30;9.05;;;12.00;99.90;;;;;;5038097;28;20020;-82
2024/03/13 08:24:07;;;;;;;11.60;9.07;;;12.00;99.90;;;;;;5037497;28;20093;-82
2024/03/13 08:26:32;;;;;;;10.35;8.35;;;12.00;99.90;;;;;;5037444;28;20045;-82
2024/03/13 08:28:59;;;;;;;9.90;8.30;;;12.00;99.90;;;;;;5015402;28;20065;-82
2024/03/13 08:31:24;;;;;;;11.10;8.73;;;12.10;99.90;;;;;;5029632;28;20033;-82
2024/03/13 08:33:51;;;;;;;10.15;8.18;;;12.10;99.90;;;;;;5012815;28;20418;-82
2024/03/13 08:36:18;;;;;;;9.45;8.23;;;12.10;99.90;;;;;;5013073;28;20121;-82
2024/03/13 08:38:44;;;;;;;9.93;8.45;;;12.20;99.90;;;;;;4996562;28;20113;-83
2024/03/13 08:41:13;;;;;;;11.43;8.65;;;12.20;99.90;;;;;;5012476;28;20041;-81
2024/03/13 08:43:38;;;;;;;11.57;9.20;;;12.20;99.90;;;;;;4996967;28;20034;-82
2024/03/13 08:46:04;;;;;;;12.45;9.15;;;12.20;99.90;;;;;;5012596;28;20099;-82
2024/03/13 08:48:30;;;;;;;10.10;8.35;;;12.20;99.90;;;;;;5013869;28;20033;-82
2024/03/13 08:50:57;;;;;;;12.27;9.70;;;12.20;99.90;;;;;;4995933;28;20540;-83
2024/03/13 08:53:24;;;;;;;12.38;9.32;;;12.10;99.90;;;;;;5011876;28;20026;-81
2024/03/13 08:55:49;;;;;;;10.75;8.75;;;12.10;99.90;;;;;;5012398;28;20018;-82
2024/03/13 08:58:15;;;;;;;10.90;8.60;;;12.20;99.90;;;;;;5012409;28;20033;-80
2024/03/13 09:00:42;;;;;;;10.65;7.93;;;12.20;99.90;;;;;;5012394;28;20025;-82
2024/03/13 09:03:09;;;;;;;11.52;8.20;;;12.20;99.90;;;;;;5012330;28;20033;-82
2024/03/13 09:05:35;;;;;;;9.48;7.72;;;12.20;99.90;;;;;;5012356;28;20080;-82
2024/03/13 09:08:02;;;;;;;9.23;7.40;;;12.20;99.90;;;;;;5012322;28;20499;-84
2024/03/13 09:10:28;;;;;;;8.43;6.72;;;12.20;99.90;;;;;;4996175;28;20034;-83
2024/03/13 09:12:54;;;;;;;9.18;6.20;;;12.20;99.90;;;;;;5028619;28;20029;-83
2024/03/13 09:15:20;;;;;;;8.02;5.75;;;12.30;99.90;;;;;;5012257;28;20019;-83
2024/03/13 09:17:47;;;;;;;8.55;6.35;;;12.30;99.90;;;;;;5012399;28;20026;-82
2024/03/13 09:20:16;;;;;;;8.93;6.47;;;12.30;99.90;;;;;;5012331;28;20469;-83
2024/03/13 09:22:42;;;;;;;8.05;6.28;;;12.40;99.90;;;;;;5012919;28;20037;-83
2024/03/13 09:25:13;;;;;;;8.30;6.18;;;12.40;99.90;;;;;;5012079;28;20022;-83
2024/03/13 09:27:40;;;;;;;8.27;5.90;;;12.40;99.90;;;;;;5012331;28;20054;-81
2024/03/13 09:30:10;;;;;;;6.40;5.22;;;12.40;99.90;;;;;;4995786;28;20038;-82
2024/03/13 09:32:36;;;;;;;7.15;5.28;;;12.40;99.90;;;;;;5012888;28;20030;-81
2024/03/13 09:35:04;;;;;;;8.20;6.03;;;12.50;99.90;;;;;;5012035;28;20363;-81
2024/03/13 09:37:31;;;;;;;6.38;4.80;;;12.50;99.90;;;;;;5012715;28;20034;-83
2024/03/13 09:39:58;;;;;;;5.97;5.35;;;12.50;99.90;;;;;;4996289;28;20045;-83
2024/03/13 09:42:27;;;;;;;6.57;4.90;;;12.50;99.90;;;;;;5012552;28;20458;-82
2024/03/13 09:44:56;;;;;;;10.88;5.78;;;12.60;99.90;;;;;;5029022;28;20026;-81
2024/03/13 09:47:27;;;;;;;6.60;5.57;;;12.60;99.90;;;;;;5012780;28;20041;-81
2024/03/13 09:49:55;;;;;;;7.50;5.85;;;12.60;99.90;;;;;;5032395;28;20054;-81
2024/03/13 09:52:24;;;;;;;6.00;5.40;;;12.60;99.90;;;;;;5021172;28;20026;-81
2024/03/13 09:54:51;;;;;;;6.30;5.47;;;12.70;99.90;;;;;;5053249;28;20010;-81
2024/03/13 09:57:19;;;;;;;7.10;6.40;;;12.70;99.90;;;;;;5037030;28;20085;-81
2024/03/13 09:59:46;;;;;;;7.10;5.75;;;12.80;99.90;;;;;;5037356;28;20014;-82
2024/03/13 10:02:16;;;;;;;9.32;6.32;;;12.80;99.90;;;;;;5036830;28;20018;-83
2024/03/13 10:04:42;;;;;;;9.38;6.47;;;12.80;99.90;;;;;;5016719;28;20026;-82
2024/03/13 10:07:14;;;;;;;11.23;8.05;;;12.80;99.90;;;;;;5016805;28;20389;-82
2024/03/13 10:09:40;;;;;;;12.65;9.82;;;12.80;99.90;;;;;;5016496;28;20022;-81
2024/03/13 10:12:10;;;;;;;16.55;10.85;;;12.70;99.90;;;;;;5015228;28;20428;-82
2024/03/13 10:14:36;;;;;;;15.38;11.18;;;12.70;99.90;;;;;;5016644;28;20022;-82
2024/03/13 10:17:04;;;;;;;15.98;11.82;;;12.60;99.90;;;;;;5015443;28;20362;-83
2024/03/13 10:19:34;;;;;;;16.08;12.20;;;12.60;99.90;;;;;;5015330;28;20469;-83
2024/03/13 10:22:02;;;;;;;19.52;13.25;;;12.50;99.90;;;;;;5016637;28;20022;-81
2024/03/13 10:24:28;;;;;;;23.17;14.73;;;12.50;99.90;;;;;;5016372;28;20085;-82
2024/03/13 10:26:56;;;;;;;22.60;15.38;;;12.50;99.90;;;;;;4998957;28;20119;-82
2024/03/13 10:29:23;;;;;;;27.42;16.80;;;12.40;99.90;;;;;;5015648;28;20022;-81
2024/03/13 10:31:51;;;;;;;27.42;18.00;;;12.40;99.90;;;;;;5031630;28;20035;-82
2024/03/13 10:34:19;;;;;;;27.75;18.95;;;12.40;99.90;;;;;;5031491;28;20018;-81
2024/03/13 10:36:45;;;;;;;27.55;18.15;;;12.50;99.90;;;;;;5015122;28;20042;-81
2024/03/13 10:39:14;;;;;;;24.38;16.92;;;12.40;99.90;;;;;;5014634;28;20071;-82
2024/03/13 10:41:44;;;;;;;25.65;16.92;;;12.50;99.90;;;;;;5015088;28;20029;-81
2024/03/13 10:44:10;;;;;;;27.00;17.02;;;12.50;99.90;;;;;;5015380;28;20034;-82
2024/03/13 10:46:37;;;;;;;28.60;18.08;;;12.50;99.90;;;;;;5014860;28;20057;-82
2024/03/13 10:49:05;;;;;;;27.15;18.42;;;12.50;99.90;;;;;;5016005;28;20104;-81
2024/03/13 10:51:31;;;;;;;25.67;16.98;;;12.50;99.90;;;;;;5014474;28;20433;-82
2024/03/13 10:54:01;;;;;;;25.90;16.63;;;12.50;99.90;;;;;;5014421;28;20018;-81
2024/03/13 10:56:27;;;;;;;22.92;15.07;;;12.40;99.90;;;;;;5030854;28;20393;-82
2024/03/13 10:58:55;;;;;;;23.15;15.45;;;12.50;99.90;;;;;;5015472;28;20014;-81
2024/03/13 11:01:21;;;;;;;22.08;15.48;;;12.50;99.90;;;;;;5014495;28;20030;-81
2024/03/13 11:03:59;;;;;;;21.67;14.50;;;12.60;99.90;;;;;;5030806;28;20092;-82
2024/03/13 11:06:25;;;;;;;23.92;14.63;;;12.60;99.90;;;;;;5030753;28;20425;-81
2024/03/13 11:08:52;;;;;;;21.58;14.43;;;12.60;99.90;;;;;;5030698;28;20386;-82
2024/03/13 11:11:23;;;;;;;19.27;13.68;;;12.60;99.90;;;;;;5030703;28;20026;-82
2024/03/13 11:13:54;;;;;;;23.23;13.82;;;12.70;99.90;;;;;;5014677;28;20052;-82
2024/03/13 11:16:21;;;;;;;19.67;13.05;;;12.70;99.90;;;;;;5014023;28;20100;-81
2024/03/13 11:18:50;;;;;;;17.98;13.18;;;12.70;99.90;;;;;;5014532;28;20080;-81
2024/03/13 11:21:28;;;;;;;18.38;12.90;;;12.80;99.90;;;;;;5030805;28;20037;-82
2024/03/13 11:24:06;;;;;;;20.15;12.80;;;12.90;99.90;;;;;;5015936;28;20079;-82
2024/03/13 11:26:37;;;;;;;17.05;13.02;;;12.90;99.90;;;;;;5031800;28;20121;-82
2024/03/13 11:29:06;;;;;;;18.13;12.98;;;13.00;99.90;;;;;;5032496;28;20093;-82
2024/03/13 11:31:33;;;;;;;18.88;12.70;;;13.00;99.90;;;;;;5055430;28;20030;-82
2024/03/13 11:34:01;;;;;;;19.73;14.25;;;13.00;99.90;;;;;;5036901;28;20025;-82
2024/03/13 11:36:27;;;;;;;19.25;13.82;;;13.00;99.90;;;;;;5035760;28;20041;-82
2024/03/13 11:38:53;;;;;;;18.48;13.65;;;13.10;99.90;;;;;;5036065;28;20053;-82
2024/03/13 11:41:19;;;;;;;19.70;14.93;;;13.10;99.90;;;;;;5014059;28;20037;-82
2024/03/13 11:43:46;;;;;;;21.10;13.80;;;13.00;99.90;;;;;;5014204;28;20033;-81
2024/03/13 11:46:12;;;;;;;19.98;14.73;;;13.00;99.90;;;;;;4997735;28;20021;-83
2024/03/13 11:48:38;;;;;;;18.33;13.27;;;13.00;99.90;;;;;;5015182;28;20025;-82
2024/03/13 11:51:06;;;;;;;21.05;15.10;;;13.00;99.90;;;;;;5014684;28;20128;-81
2024/03/13 11:53:35;;;;;;;20.25;14.85;;;13.00;99.90;;;;;;5014657;28;20018;-81
2024/03/13 11:56:15;;;;;;;17.73;13.70;;;13.00;99.90;;;;;;4997944;28;20033;-81
2024/03/13 11:58:41;;;;;;;19.95;15.02;;;12.90;99.90;;;;;;5014845;28;20049;-81
2024/03/13 12:01:12;;;;;;;22.67;15.50;;;12.90;99.90;;;;;;4996949;28;20034;-81
2024/03/13 12:03:43;;;;;;;20.80;15.18;;;12.90;99.90;;;;;;5013259;28;20029;-81
2024/03/13 12:06:21;;;;;;;20.35;15.27;;;12.90;99.90;;;;;;5013104;28;20176;-81
2024/03/13 12:08:51;;;;;;;21.38;16.17;;;12.90;99.90;;;;;;5013509;28;20034;-82
2024/03/13 12:11:18;;;;;;;20.57;17.20;;;12.80;99.90;;;;;;5029363;28;20040;-82
2024/03/13 12:13:44;;;;;;;18.90;15.48;;;12.70;99.90;;;;;;4997152;28;20092;-82
2024/03/13 12:16:13;;;;;;;22.45;16.58;;;12.80;99.90;;;;;;5013280;28;20466;-81
2024/03/13 12:18:45;;;;;;;20.98;15.63;;;12.80;99.90;;;;;;5013508;28;20034;-81
2024/03/13 12:21:11;;;;;;;20.50;14.40;;;12.80;99.90;;;;;;5013369;28;20041;-81
2024/03/13 12:23:37;;;;;;;20.25;15.52;;;12.80;99.90;;;;;;5014313;28;20033;-81
2024/03/13 12:26:04;;;;;;;20.38;15.65;;;12.80;99.90;;;;;;5012718;28;20504;-81
2024/03/13 12:28:30;;;;;;;24.45;16.98;;;12.90;99.90;;;;;;5012855;28;20074;-81
2024/03/13 12:30:56;;;;;;;21.50;17.08;;;12.90;99.90;;;;;;5012863;28;20061;-82
2024/03/13 12:33:22;;;;;;;23.58;16.58;;;13.00;99.90;;;;;;5012911;28;20088;-82
2024/03/13 12:35:58;;;;;;;23.27;16.95;;;13.00;99.90;;;;;;5012530;28;20017;-81
2024/03/13 12:38:37;;;;;;;20.95;16.50;;;13.00;99.90;;;;;;5013800;28;20371;-81
2024/03/13 12:41:04;;;;;;;21.10;17.30;;;13.00;99.90;;;;;;5013983;28;20046;-82
2024/03/13 12:43:31;;;;;;;25.60;17.33;;;13.10;99.90;;;;;;5011850;28;20026;-82
2024/03/13 12:45:58;;;;;;;23.88;17.75;;;13.20;99.90;;;;;;5012610;28;20540;-82
2024/03/13 12:48:24;;;;;;;22.42;17.38;;;13.20;99.90;;;;;;5029175;28;20037;-81
2024/03/13 12:50:50;;;;;;;24.50;18.35;;;13.20;99.90;;;;;;5013840;28;20026;-82
2024/03/13 12:53:16;;;;;;;25.70;18.23;;;13.20;99.90;;;;;;5012420;28;20125;-81
2024/03/13 12:55:41;;;;;;;25.67;18.00;;;13.10;99.90;;;;;;5012748;28;20061;-82
2024/03/13 12:58:08;;;;;;;20.83;16.75;;;13.20;99.90;;;;;;5012842;28;20386;-82
2024/03/13 13:00:39;;;;;;;24.40;16.73;;;13.20;99.90;;;;;;4996988;28;20052;-82